sensor_id;sensor_type;location;lat;lon;timestamp;P1;durP1;ratioP1;P2;durP2;ratioP2
29812;SDS011;16707;48.106;11.548;2023-10-09T00:01:25;13.18;;;5.38;;
29812;SDS011;16707;48.106;11.548;2023-10-09T00:03:52;10.10;;;5.70;;
29812;SDS011;16707;48.106;11.548;2023-10-09T00:06:21;9.95;;;5.15;;
29812;SDS011;16707;48.106;11.548;2023-10-09T00:08:58;14.32;;;5.43;;
29812;SDS011;16707;48.106;11.548;2023-10-09T00:11:37;11.77;;;5.70;;
29812;SDS011;16707;48.106;11.548;2023-10-09T00:14:09;10.90;;;5.47;;
29812;SDS011;16707;48.106;11.548;2023-10-09T00:16:37;9.50;;;5.10;;
29812;SDS011;16707;48.106;11.548;2023-10-09T00:19:12;14.35;;;6.10;;
29812;SDS011;16707;48.106;11.548;2023-10-09T00:21:42;12.65;;;5.55;;
29812;SDS011;16707;48.106;11.548;2023-10-09T00:24:12;10.52;;;5.05;;
29812;SDS011;16707;48.106;11.548;2023-10-09T00:26:48;12.57;;;5.78;;
29812;SDS011;16707;48.106;11.548;2023-10-09T00:29:16;9.98;;;5.25;;
29812;SDS011;16707;48.106;11.548;2023-10-09T00:31:47;13.25;;;5.90;;
29812;SDS011;16707;48.106;11.548;2023-10-09T00:34:21;13.00;;;5.88;;
29812;SDS011;16707;48.106;11.548;2023-10-09T00:36:51;10.95;;;5.07;;
29812;SDS011;16707;48.106;11.548;2023-10-09T00:39:20;13.70;;;5.90;;
29812;SDS011;16707;48.106;11.548;2023-10-09T00:42:08;11.00;;;5.30;;
29812;SDS011;16707;48.106;11.548;2023-10-09T00:44:37;13.48;;;4.97;;
29812;SDS011;16707;48.106;11.548;2023-10-09T00:47:07;13.43;;;6.03;;
29812;SDS011;16707;48.106;11.548;2023-10-09T00:49:49;13.30;;;5.65;;
29812;SDS011;16707;48.106;11.548;2023-10-09T00:52:22;14.80;;;6.10;;
29812;SDS011;16707;48.106;11.548;2023-10-09T00:54:57;11.00;;;5.32;;
29812;SDS011;16707;48.106;11.548;2023-10-09T00:57:30;10.70;;;5.40;;
29812;SDS011;16707;48.106;11.548;2023-10-09T01:00:03;14.55;;;5.40;;
29812;SDS011;16707;48.106;11.548;2023-10-09T01:02:48;11.32;;;5.80;;
29812;SDS011;16707;48.106;11.548;2023-10-09T01:05:35;9.75;;;5.30;;
29812;SDS011;16707;48.106;11.548;2023-10-09T01:08:03;9.60;;;5.22;;
29812;SDS011;16707;48.106;11.548;2023-10-09T01:10:46;11.43;;;5.45;;
29812;SDS011;16707;48.106;11.548;2023-10-09T01:13:21;12.23;;;5.50;;
29812;SDS011;16707;48.106;11.548;2023-10-09T01:15:53;12.27;;;4.68;;
29812;SDS011;16707;48.106;11.548;2023-10-09T01:18:23;10.65;;;5.13;;
29812;SDS011;16707;48.106;11.548;2023-10-09T01:21:00;15.00;;;5.97;;
29812;SDS011;16707;48.106;11.548;2023-10-09T01:23:30;11.75;;;5.45;;
29812;SDS011;16707;48.106;11.548;2023-10-09T01:25:56;11.23;;;5.45;;
29812;SDS011;16707;48.106;11.548;2023-10-09T01:28:23;13.35;;;5.47;;
29812;SDS011;16707;48.106;11.548;2023-10-09T01:30:52;10.60;;;4.63;;
29812;SDS011;16707;48.106;11.548;2023-10-09T01:33:20;11.18;;;4.75;;
29812;SDS011;16707;48.106;11.548;2023-10-09T01:35:49;11.93;;;6.03;;
29812;SDS011;16707;48.106;11.548;2023-10-09T01:38:22;10.15;;;5.35;;
29812;SDS011;16707;48.106;11.548;2023-10-09T01:41:07;12.60;;;5.53;;
29812;SDS011;16707;48.106;11.548;2023-10-09T01:43:44;10.95;;;5.35;;
29812;SDS011;16707;48.106;11.548;2023-10-09T01:46:15;12.75;;;5.18;;
29812;SDS011;16707;48.106;11.548;2023-10-09T01:48:44;10.00;;;4.55;;
29812;SDS011;16707;48.106;11.548;2023-10-09T01:51:15;12.65;;;5.20;;
29812;SDS011;16707;48.106;11.548;2023-10-09T01:53:43;13.68;;;5.30;;
29812;SDS011;16707;48.106;11.548;2023-10-09T01:56:14;11.90;;;4.82;;
29812;SDS011;16707;48.106;11.548;2023-10-09T01:58:42;14.18;;;5.47;;
29812;SDS011;16707;48.106;11.548;2023-10-09T02:01:11;12.68;;;5.05;;
29812;SDS011;16707;48.106;11.548;2023-10-09T02:03:39;12.38;;;5.82;;
29812;SDS011;16707;48.106;11.548;2023-10-09T02:06:08;9.02;;;4.65;;
29812;SDS011;16707;48.106;11.548;2023-10-09T02:08:51;13.25;;;5.05;;
29812;SDS011;16707;48.106;11.548;2023-10-09T02:11:20;12.02;;;5.05;;
29812;SDS011;16707;48.106;11.548;2023-10-09T02:14:01;12.23;;;5.05;;
29812;SDS011;16707;48.106;11.548;2023-10-09T02:16:40;15.20;;;4.63;;
29812;SDS011;16707;48.106;11.548;2023-10-09T02:19:08;13.25;;;4.75;;
29812;SDS011;16707;48.106;11.548;2023-10-09T02:21:54;10.60;;;5.00;;
29812;SDS011;16707;48.106;11.548;2023-10-09T02:24:22;11.70;;;5.13;;
29812;SDS011;16707;48.106;11.548;2023-10-09T02:27:08;13.07;;;5.35;;
29812;SDS011;16707;48.106;11.548;2023-10-09T02:29:37;11.35;;;5.20;;
29812;SDS011;16707;48.106;11.548;2023-10-09T02:32:06;14.88;;;5.43;;
29812;SDS011;16707;48.106;11.548;2023-10-09T02:34:50;12.95;;;5.03;;
29812;SDS011;16707;48.106;11.548;2023-10-09T02:37:18;12.73;;;4.85;;
29812;SDS011;16707;48.106;11.548;2023-10-09T02:39:50;11.00;;;4.93;;
29812;SDS011;16707;48.106;11.548;2023-10-09T02:42:19;12.20;;;4.90;;
29812;SDS011;16707;48.106;11.548;2023-10-09T02:44:48;11.93;;;5.15;;
29812;SDS011;16707;48.106;11.548;2023-10-09T02:47:17;10.00;;;5.32;;
29812;SDS011;16707;48.106;11.548;2023-10-09T02:49:49;11.83;;;4.80;;
29812;SDS011;16707;48.106;11.548;2023-10-09T02:52:17;9.75;;;4.57;;
29812;SDS011;16707;48.106;11.548;2023-10-09T02:57:26;11.80;;;4.75;;
29812;SDS011;16707;48.106;11.548;2023-10-09T03:00:02;13.88;;;4.90;;
29812;SDS011;16707;48.106;11.548;2023-10-09T03:02:33;9.88;;;4.65;;
29812;SDS011;16707;48.106;11.548;2023-10-09T03:05:05;10.52;;;4.63;;
29812;SDS011;16707;48.106;11.548;2023-10-09T03:07:37;12.63;;;4.75;;
29812;SDS011;16707;48.106;11.548;2023-10-09T03:10:05;13.07;;;4.72;;
29812;SDS011;16707;48.106;11.548;2023-10-09T03:12:36;11.50;;;5.10;;
29812;SDS011;16707;48.106;11.548;2023-10-09T03:15:05;9.43;;;4.75;;
29812;SDS011;16707;48.106;11.548;2023-10-09T03:17:33;11.27;;;4.47;;
29812;SDS011;16707;48.106;11.548;2023-10-09T03:20:02;9.45;;;4.20;;
29812;SDS011;16707;48.106;11.548;2023-10-09T03:22:37;10.43;;;4.57;;
29812;SDS011;16707;48.106;11.548;2023-10-09T03:25:04;10.40;;;5.30;;
29812;SDS011;16707;48.106;11.548;2023-10-09T03:27:37;8.55;;;4.47;;
29812;SDS011;16707;48.106;11.548;2023-10-09T03:30:10;10.38;;;4.90;;
29812;SDS011;16707;48.106;11.548;2023-10-09T03:32:42;9.13;;;4.03;;
29812;SDS011;16707;48.106;11.548;2023-10-09T03:35:15;10.88;;;4.00;;
29812;SDS011;16707;48.106;11.548;2023-10-09T03:37:49;16.30;;;5.53;;
29812;SDS011;16707;48.106;11.548;2023-10-09T03:40:22;12.88;;;4.82;;
29812;SDS011;16707;48.106;11.548;2023-10-09T03:42:51;12.48;;;5.03;;
29812;SDS011;16707;48.106;11.548;2023-10-09T03:45:19;12.23;;;4.60;;
29812;SDS011;16707;48.106;11.548;2023-10-09T03:47:52;10.30;;;4.60;;
29812;SDS011;16707;48.106;11.548;2023-10-09T03:50:26;14.38;;;4.65;;
29812;SDS011;16707;48.106;11.548;2023-10-09T03:53:00;9.93;;;4.35;;
29812;SDS011;16707;48.106;11.548;2023-10-09T03:55:32;13.63;;;4.65;;
29812;SDS011;16707;48.106;11.548;2023-10-09T03:58:04;10.50;;;4.20;;
29812;SDS011;16707;48.106;11.548;2023-10-09T04:00:31;12.98;;;4.38;;
29812;SDS011;16707;48.106;11.548;2023-10-09T04:03:10;11.27;;;4.63;;
29812;SDS011;16707;48.106;11.548;2023-10-09T04:05:39;9.88;;;4.70;;
29812;SDS011;16707;48.106;11.548;2023-10-09T04:08:07;12.13;;;4.75;;
29812;SDS011;16707;48.106;11.548;2023-10-09T04:10:39;11.40;;;4.80;;
29812;SDS011;16707;48.106;11.548;2023-10-09T04:13:19;14.25;;;4.97;;
29812;SDS011;16707;48.106;11.548;2023-10-09T04:15:51;15.02;;;5.07;;
29812;SDS011;16707;48.106;11.548;2023-10-09T04:18:19;13.02;;;4.53;;
29812;SDS011;16707;48.106;11.548;2023-10-09T04:20:53;13.98;;;4.47;;
29812;SDS011;16707;48.106;11.548;2023-10-09T04:23:47;11.45;;;4.65;;
29812;SDS011;16707;48.106;11.548;2023-10-09T04:26:35;16.45;;;4.82;;
29812;SDS011;16707;48.106;11.548;2023-10-09T04:29:03;14.05;;;4.55;;
29812;SDS011;16707;48.106;11.548;2023-10-09T04:31:31;12.68;;;5.05;;
29812;SDS011;16707;48.106;11.548;2023-10-09T04:34:02;11.52;;;3.78;;
29812;SDS011;16707;48.106;11.548;2023-10-09T04:36:48;10.98;;;4.40;;
29812;SDS011;16707;48.106;11.548;2023-10-09T04:39:17;10.32;;;4.38;;
29812;SDS011;16707;48.106;11.548;2023-10-09T04:42:11;9.98;;;4.22;;
29812;SDS011;16707;48.106;11.548;2023-10-09T04:44:57;12.98;;;4.15;;
29812;SDS011;16707;48.106;11.548;2023-10-09T04:47:44;9.93;;;4.60;;
29812;SDS011;16707;48.106;11.548;2023-10-09T04:50:31;9.48;;;4.30;;
29812;SDS011;16707;48.106;11.548;2023-10-09T04:53:59;8.68;;;4.38;;
29812;SDS011;16707;48.106;11.548;2023-10-09T04:56:37;9.32;;;4.03;;
29812;SDS011;16707;48.106;11.548;2023-10-09T04:59:17;12.00;;;4.88;;
29812;SDS011;16707;48.106;11.548;2023-10-09T05:01:46;13.70;;;4.78;;
29812;SDS011;16707;48.106;11.548;2023-10-09T05:04:22;11.02;;;4.80;;
29812;SDS011;16707;48.106;11.548;2023-10-09T05:07:04;10.82;;;4.57;;
29812;SDS011;16707;48.106;11.548;2023-10-09T05:09:46;14.05;;;4.57;;
29812;SDS011;16707;48.106;11.548;2023-10-09T05:12:22;6.88;;;3.75;;
29812;SDS011;16707;48.106;11.548;2023-10-09T05:14:52;10.95;;;5.00;;
29812;SDS011;16707;48.106;11.548;2023-10-09T05:17:35;9.35;;;4.43;;
29812;SDS011;16707;48.106;11.548;2023-10-09T05:20:03;11.85;;;4.60;;
29812;SDS011;16707;48.106;11.548;2023-10-09T05:22:46;9.65;;;4.50;;
29812;SDS011;16707;48.106;11.548;2023-10-09T05:25:24;14.20;;;4.72;;
29812;SDS011;16707;48.106;11.548;2023-10-09T05:28:18;11.45;;;4.65;;
29812;SDS011;16707;48.106;11.548;2023-10-09T05:30:56;12.20;;;5.32;;
29812;SDS011;16707;48.106;11.548;2023-10-09T05:33:33;10.52;;;4.38;;
29812;SDS011;16707;48.106;11.548;2023-10-09T05:36:02;13.30;;;4.97;;
29812;SDS011;16707;48.106;11.548;2023-10-09T05:41:46;10.93;;;5.32;;
29812;SDS011;16707;48.106;11.548;2023-10-09T05:44:17;17.15;;;5.22;;
29812;SDS011;16707;48.106;11.548;2023-10-09T05:47:02;11.85;;;4.72;;
29812;SDS011;16707;48.106;11.548;2023-10-09T05:49:48;12.90;;;4.97;;
29812;SDS011;16707;48.106;11.548;2023-10-09T05:52:43;11.98;;;4.68;;
29812;SDS011;16707;48.106;11.548;2023-10-09T05:55:29;10.82;;;4.93;;
29812;SDS011;16707;48.106;11.548;2023-10-09T05:58:15;9.60;;;4.30;;
29812;SDS011;16707;48.106;11.548;2023-10-09T06:01:00;10.95;;;4.57;;
29812;SDS011;16707;48.106;11.548;2023-10-09T06:03:45;13.77;;;4.18;;
29812;SDS011;16707;48.106;11.548;2023-10-09T06:06:16;9.60;;;4.43;;
29812;SDS011;16707;48.106;11.548;2023-10-09T06:08:58;11.85;;;4.78;;
29812;SDS011;16707;48.106;11.548;2023-10-09T06:11:45;10.93;;;4.47;;
29812;SDS011;16707;48.106;11.548;2023-10-09T06:14:20;10.90;;;4.70;;
29812;SDS011;16707;48.106;11.548;2023-10-09T06:16:50;11.75;;;4.10;;
29812;SDS011;16707;48.106;11.548;2023-10-09T06:19:48;12.50;;;4.00;;
29812;SDS011;16707;48.106;11.548;2023-10-09T06:22:16;11.23;;;4.07;;
29812;SDS011;16707;48.106;11.548;2023-10-09T06:25:16;10.35;;;4.03;;
29812;SDS011;16707;48.106;11.548;2023-10-09T06:27:44;13.07;;;4.18;;
29812;SDS011;16707;48.106;11.548;2023-10-09T06:30:23;10.55;;;4.07;;
29812;SDS011;16707;48.106;11.548;2023-10-09T06:32:51;7.32;;;3.50;;
29812;SDS011;16707;48.106;11.548;2023-10-09T06:35:23;12.52;;;4.20;;
29812;SDS011;16707;48.106;11.548;2023-10-09T06:37:58;6.70;;;3.28;;
29812;SDS011;16707;48.106;11.548;2023-10-09T06:40:39;9.55;;;3.97;;
29812;SDS011;16707;48.106;11.548;2023-10-09T06:43:24;11.82;;;4.05;;
29812;SDS011;16707;48.106;11.548;2023-10-09T06:45:54;8.30;;;4.25;;
29812;SDS011;16707;48.106;11.548;2023-10-09T06:48:44;13.82;;;3.78;;
29812;SDS011;16707;48.106;11.548;2023-10-09T06:51:11;17.15;;;4.20;;
29812;SDS011;16707;48.106;11.548;2023-10-09T06:54:02;19.25;;;5.97;;
29812;SDS011;16707;48.106;11.548;2023-10-09T06:56:32;13.25;;;4.18;;
29812;SDS011;16707;48.106;11.548;2023-10-09T06:59:13;11.20;;;4.00;;
29812;SDS011;16707;48.106;11.548;2023-10-09T07:01:46;10.75;;;4.47;;
29812;SDS011;16707;48.106;11.548;2023-10-09T07:04:32;11.05;;;4.18;;
29812;SDS011;16707;48.106;11.548;2023-10-09T07:07:19;11.75;;;3.90;;
29812;SDS011;16707;48.106;11.548;2023-10-09T07:09:51;9.90;;;3.40;;
29812;SDS011;16707;48.106;11.548;2023-10-09T07:12:36;8.20;;;4.35;;
29812;SDS011;16707;48.106;11.548;2023-10-09T07:15:09;9.52;;;4.13;;
29812;SDS011;16707;48.106;11.548;2023-10-09T07:17:50;12.25;;;4.30;;
29812;SDS011;16707;48.106;11.548;2023-10-09T07:20:20;13.23;;;4.75;;
29812;SDS011;16707;48.106;11.548;2023-10-09T07:23:10;10.98;;;3.95;;
29812;SDS011;16707;48.106;11.548;2023-10-09T07:25:40;11.85;;;4.05;;
29812;SDS011;16707;48.106;11.548;2023-10-09T07:28:19;6.82;;;3.33;;
29812;SDS011;16707;48.106;11.548;2023-10-09T07:31:07;11.85;;;4.05;;
29812;SDS011;16707;48.106;11.548;2023-10-09T07:33:34;8.82;;;4.13;;
29812;SDS011;16707;48.106;11.548;2023-10-09T07:36:14;9.80;;;4.45;;
29812;SDS011;16707;48.106;11.548;2023-10-09T07:38:54;12.68;;;3.97;;
29812;SDS011;16707;48.106;11.548;2023-10-09T07:41:27;10.07;;;3.25;;
29812;SDS011;16707;48.106;11.548;2023-10-09T07:44:09;12.45;;;3.08;;
29812;SDS011;16707;48.106;11.548;2023-10-09T07:46:59;8.30;;;3.58;;
29812;SDS011;16707;48.106;11.548;2023-10-09T07:49:42;9.05;;;3.00;;
29812;SDS011;16707;48.106;11.548;2023-10-09T07:52:13;7.47;;;2.85;;
29812;SDS011;16707;48.106;11.548;2023-10-09T07:54:42;11.98;;;3.60;;
29812;SDS011;16707;48.106;11.548;2023-10-09T07:57:19;8.13;;;2.80;;
29812;SDS011;16707;48.106;11.548;2023-10-09T07:59:51;8.63;;;2.63;;
29812;SDS011;16707;48.106;11.548;2023-10-09T08:02:29;15.43;;;4.03;;
29812;SDS011;16707;48.106;11.548;2023-10-09T08:04:59;9.43;;;3.40;;
29812;SDS011;16707;48.106;11.548;2023-10-09T08:07:31;11.27;;;3.60;;
29812;SDS011;16707;48.106;11.548;2023-10-09T08:10:03;7.18;;;2.85;;
29812;SDS011;16707;48.106;11.548;2023-10-09T08:12:55;10.25;;;3.00;;
29812;SDS011;16707;48.106;11.548;2023-10-09T08:15:44;10.38;;;2.88;;
29812;SDS011;16707;48.106;11.548;2023-10-09T08:18:16;10.15;;;3.53;;
29812;SDS011;16707;48.106;11.548;2023-10-09T08:20:53;8.95;;;3.15;;
29812;SDS011;16707;48.106;11.548;2023-10-09T08:23:38;12.05;;;3.42;;
29812;SDS011;16707;48.106;11.548;2023-10-09T08:26:14;10.35;;;2.95;;
29812;SDS011;16707;48.106;11.548;2023-10-09T08:28:55;10.95;;;2.90;;
29812;SDS011;16707;48.106;11.548;2023-10-09T08:31:39;15.88;;;2.92;;
29812;SDS011;16707;48.106;11.548;2023-10-09T08:34:11;12.23;;;3.45;;
29812;SDS011;16707;48.106;11.548;2023-10-09T08:36:49;9.43;;;3.40;;
29812;SDS011;16707;48.106;11.548;2023-10-09T08:39:20;9.95;;;3.45;;
29812;SDS011;16707;48.106;11.548;2023-10-09T08:41:58;8.40;;;3.03;;
29812;SDS011;16707;48.106;11.548;2023-10-09T08:44:28;7.68;;;2.92;;
29812;SDS011;16707;48.106;11.548;2023-10-09T08:46:57;10.80;;;3.28;;
29812;SDS011;16707;48.106;11.548;2023-10-09T08:49:25;9.60;;;3.38;;
29812;SDS011;16707;48.106;11.548;2023-10-09T08:51:53;7.35;;;3.08;;
29812;SDS011;16707;48.106;11.548;2023-10-09T08:54:20;9.00;;;2.95;;
29812;SDS011;16707;48.106;11.548;2023-10-09T08:56:48;7.55;;;2.83;;
29812;SDS011;16707;48.106;11.548;2023-10-09T08:59:19;13.52;;;4.38;;
29812;SDS011;16707;48.106;11.548;2023-10-09T09:01:48;17.02;;;3.45;;
29812;SDS011;16707;48.106;11.548;2023-10-09T09:04:33;12.43;;;3.33;;
29812;SDS011;16707;48.106;11.548;2023-10-09T09:07:01;12.25;;;3.05;;
29812;SDS011;16707;48.106;11.548;2023-10-09T09:09:29;12.55;;;3.60;;
29812;SDS011;16707;48.106;11.548;2023-10-09T09:11:57;13.05;;;3.03;;
29812;SDS011;16707;48.106;11.548;2023-10-09T09:14:34;9.57;;;2.75;;
29812;SDS011;16707;48.106;11.548;2023-10-09T09:17:04;10.05;;;2.83;;
29812;SDS011;16707;48.106;11.548;2023-10-09T09:19:36;9.20;;;3.03;;
29812;SDS011;16707;48.106;11.548;2023-10-09T09:22:04;12.40;;;3.95;;
29812;SDS011;16707;48.106;11.548;2023-10-09T09:24:56;8.73;;;3.17;;
29812;SDS011;16707;48.106;11.548;2023-10-09T09:27:43;9.82;;;2.97;;
29812;SDS011;16707;48.106;11.548;2023-10-09T09:30:24;9.80;;;3.08;;
29812;SDS011;16707;48.106;11.548;2023-10-09T09:32:59;8.93;;;3.20;;
29812;SDS011;16707;48.106;11.548;2023-10-09T09:38:29;12.13;;;3.42;;
29812;SDS011;16707;48.106;11.548;2023-10-09T09:41:07;9.63;;;3.17;;
29812;SDS011;16707;48.106;11.548;2023-10-09T09:43:35;12.43;;;3.60;;
29812;SDS011;16707;48.106;11.548;2023-10-09T09:46:06;10.18;;;3.03;;
29812;SDS011;16707;48.106;11.548;2023-10-09T09:48:38;15.30;;;3.95;;
29812;SDS011;16707;48.106;11.548;2023-10-09T09:51:09;13.40;;;3.72;;
29812;SDS011;16707;48.106;11.548;2023-10-09T09:53:38;7.95;;;2.83;;
29812;SDS011;16707;48.106;11.548;2023-10-09T09:56:05;8.55;;;2.53;;
29812;SDS011;16707;48.106;11.548;2023-10-09T09:58:38;12.90;;;2.88;;
29812;SDS011;16707;48.106;11.548;2023-10-09T10:01:09;14.60;;;3.42;;
29812;SDS011;16707;48.106;11.548;2023-10-09T10:03:44;12.98;;;2.90;;
29812;SDS011;16707;48.106;11.548;2023-10-09T10:06:17;9.73;;;3.38;;
29812;SDS011;16707;48.106;11.548;2023-10-09T10:08:47;9.43;;;3.15;;
29812;SDS011;16707;48.106;11.548;2023-10-09T10:14:09;14.90;;;3.28;;
29812;SDS011;16707;48.106;11.548;2023-10-09T10:17:00;9.07;;;3.10;;
29812;SDS011;16707;48.106;11.548;2023-10-09T10:22:51;12.70;;;4.93;;
29812;SDS011;16707;48.106;11.548;2023-10-09T10:25:45;10.15;;;3.45;;
29812;SDS011;16707;48.106;11.548;2023-10-09T10:28:15;11.10;;;2.95;;
29812;SDS011;16707;48.106;11.548;2023-10-09T10:31:01;8.13;;;2.83;;
29812;SDS011;16707;48.106;11.548;2023-10-09T10:33:33;12.02;;;3.25;;
29812;SDS011;16707;48.106;11.548;2023-10-09T10:36:33;8.63;;;3.40;;
29812;SDS011;16707;48.106;11.548;2023-10-09T10:39:01;12.32;;;3.97;;
29812;SDS011;16707;48.106;11.548;2023-10-09T10:41:35;11.93;;;3.17;;
29812;SDS011;16707;48.106;11.548;2023-10-09T10:44:15;13.25;;;3.35;;
29812;SDS011;16707;48.106;11.548;2023-10-09T10:47:01;12.98;;;3.30;;
29812;SDS011;16707;48.106;11.548;2023-10-09T10:49:30;11.32;;;3.45;;
29812;SDS011;16707;48.106;11.548;2023-10-09T10:52:04;13.03;;;3.57;;
29812;SDS011;16707;48.106;11.548;2023-10-09T10:54:44;9.02;;;3.20;;
29812;SDS011;16707;48.106;11.548;2023-10-09T10:57:35;11.60;;;3.63;;
29812;SDS011;16707;48.106;11.548;2023-10-09T11:00:26;12.98;;;3.70;;
29812;SDS011;16707;48.106;11.548;2023-10-09T11:03:17;16.45;;;3.45;;
29812;SDS011;16707;48.106;11.548;2023-10-09T11:05:49;10.00;;;3.75;;
29812;SDS011;16707;48.106;11.548;2023-10-09T11:08:18;11.93;;;4.10;;
29812;SDS011;16707;48.106;11.548;2023-10-09T11:11:09;10.05;;;3.33;;
29812;SDS011;16707;48.106;11.548;2023-10-09T11:13:41;12.68;;;3.33;;
29812;SDS011;16707;48.106;11.548;2023-10-09T11:16:19;14.13;;;3.88;;
29812;SDS011;16707;48.106;11.548;2023-10-09T11:18:57;13.48;;;3.42;;
29812;SDS011;16707;48.106;11.548;2023-10-09T11:21:37;15.32;;;3.65;;
29812;SDS011;16707;48.106;11.548;2023-10-09T11:24:08;10.98;;;3.92;;
29812;SDS011;16707;48.106;11.548;2023-10-09T11:26:50;11.95;;;3.83;;
29812;SDS011;16707;48.106;11.548;2023-10-09T11:29:21;10.00;;;3.03;;
29812;SDS011;16707;48.106;11.548;2023-10-09T11:31:58;10.20;;;3.20;;
29812;SDS011;16707;48.106;11.548;2023-10-09T11:34:27;10.18;;;3.70;;
29812;SDS011;16707;48.106;11.548;2023-10-09T11:37:00;13.98;;;3.85;;
29812;SDS011;16707;48.106;11.548;2023-10-09T11:39:31;11.68;;;3.80;;
29812;SDS011;16707;48.106;11.548;2023-10-09T11:42:17;15.25;;;3.80;;
29812;SDS011;16707;48.106;11.548;2023-10-09T11:45:01;16.80;;;4.28;;
29812;SDS011;16707;48.106;11.548;2023-10-09T11:47:44;15.35;;;4.55;;
29812;SDS011;16707;48.106;11.548;2023-10-09T11:53:16;17.08;;;4.45;;
29812;SDS011;16707;48.106;11.548;2023-10-09T11:56:01;14.00;;;4.55;;
29812;SDS011;16707;48.106;11.548;2023-10-09T11:58:27;16.42;;;4.85;;
29812;SDS011;16707;48.106;11.548;2023-10-09T12:00:54;16.42;;;4.90;;
29812;SDS011;16707;48.106;11.548;2023-10-09T12:03:25;13.65;;;3.85;;
29812;SDS011;16707;48.106;11.548;2023-10-09T12:05:58;16.90;;;4.60;;
29812;SDS011;16707;48.106;11.548;2023-10-09T12:08:30;14.85;;;4.00;;
29812;SDS011;16707;48.106;11.548;2023-10-09T12:10:58;13.93;;;4.47;;
29812;SDS011;16707;48.106;11.548;2023-10-09T12:13:30;14.50;;;4.28;;
29812;SDS011;16707;48.106;11.548;2023-10-09T12:15:57;11.93;;;4.07;;
29812;SDS011;16707;48.106;11.548;2023-10-09T12:18:25;10.90;;;3.75;;
29812;SDS011;16707;48.106;11.548;2023-10-09T12:20:53;15.38;;;3.53;;
29812;SDS011;16707;48.106;11.548;2023-10-09T12:23:27;13.85;;;5.03;;
29812;SDS011;16707;48.106;11.548;2023-10-09T12:25:54;11.23;;;4.53;;
29812;SDS011;16707;48.106;11.548;2023-10-09T12:28:22;13.38;;;4.32;;
29812;SDS011;16707;48.106;11.548;2023-10-09T12:30:51;10.50;;;4.00;;
29812;SDS011;16707;48.106;11.548;2023-10-09T12:33:18;14.45;;;4.53;;
29812;SDS011;16707;48.106;11.548;2023-10-09T12:35:52;14.98;;;5.13;;
29812;SDS011;16707;48.106;11.548;2023-10-09T12:38:24;13.10;;;4.18;;
29812;SDS011;16707;48.106;11.548;2023-10-09T12:41:00;18.40;;;4.88;;
29812;SDS011;16707;48.106;11.548;2023-10-09T12:43:33;11.32;;;4.13;;
29812;SDS011;16707;48.106;11.548;2023-10-09T12:46:05;16.92;;;4.32;;
29812;SDS011;16707;48.106;11.548;2023-10-09T12:48:33;14.30;;;4.32;;
29812;SDS011;16707;48.106;11.548;2023-10-09T12:51:00;16.52;;;4.70;;
29812;SDS011;16707;48.106;11.548;2023-10-09T12:53:31;13.50;;;3.90;;
29812;SDS011;16707;48.106;11.548;2023-10-09T12:55:58;14.68;;;4.65;;
29812;SDS011;16707;48.106;11.548;2023-10-09T12:58:25;12.88;;;4.43;;
29812;SDS011;16707;48.106;11.548;2023-10-09T13:00:52;18.00;;;4.30;;
29812;SDS011;16707;48.106;11.548;2023-10-09T13:03:21;15.02;;;4.70;;
29812;SDS011;16707;48.106;11.548;2023-10-09T13:05:53;16.95;;;3.92;;
29812;SDS011;16707;48.106;11.548;2023-10-09T13:08:22;17.63;;;4.65;;
29812;SDS011;16707;48.106;11.548;2023-10-09T13:10:56;13.63;;;4.68;;
29812;SDS011;16707;48.106;11.548;2023-10-09T13:13:29;13.00;;;3.95;;
29812;SDS011;16707;48.106;11.548;2023-10-09T13:16:09;14.90;;;3.65;;
29812;SDS011;16707;48.106;11.548;2023-10-09T13:18:43;13.90;;;4.75;;
29812;SDS011;16707;48.106;11.548;2023-10-09T13:21:15;14.13;;;4.40;;
29812;SDS011;16707;48.106;11.548;2023-10-09T13:23:43;14.38;;;4.00;;
29812;SDS011;16707;48.106;11.548;2023-10-09T13:26:12;16.67;;;4.40;;
29812;SDS011;16707;48.106;11.548;2023-10-09T13:28:49;13.10;;;4.10;;
29812;SDS011;16707;48.106;11.548;2023-10-09T13:31:18;13.95;;;4.38;;
29812;SDS011;16707;48.106;11.548;2023-10-09T13:33:48;15.95;;;5.03;;
29812;SDS011;16707;48.106;11.548;2023-10-09T13:36:19;14.20;;;4.03;;
29812;SDS011;16707;48.106;11.548;2023-10-09T13:38:53;11.35;;;3.78;;
29812;SDS011;16707;48.106;11.548;2023-10-09T13:41:20;10.93;;;3.83;;
29812;SDS011;16707;48.106;11.548;2023-10-09T13:43:50;15.13;;;3.58;;
29812;SDS011;16707;48.106;11.548;2023-10-09T13:46:18;10.73;;;3.95;;
29812;SDS011;16707;48.106;11.548;2023-10-09T13:48:45;13.75;;;4.22;;
29812;SDS011;16707;48.106;11.548;2023-10-09T13:51:15;15.18;;;4.03;;
29812;SDS011;16707;48.106;11.548;2023-10-09T13:53:43;11.30;;;3.58;;
29812;SDS011;16707;48.106;11.548;2023-10-09T13:56:12;10.82;;;3.75;;
29812;SDS011;16707;48.106;11.548;2023-10-09T13:58:45;15.10;;;3.85;;
29812;SDS011;16707;48.106;11.548;2023-10-09T14:01:12;12.98;;;3.63;;
29812;SDS011;16707;48.106;11.548;2023-10-09T14:03:51;10.63;;;3.60;;
29812;SDS011;16707;48.106;11.548;2023-10-09T14:06:22;15.38;;;4.25;;
29812;SDS011;16707;48.106;11.548;2023-10-09T14:08:57;11.07;;;3.58;;
29812;SDS011;16707;48.106;11.548;2023-10-09T14:11:25;10.73;;;3.72;;
29812;SDS011;16707;48.106;11.548;2023-10-09T14:13:53;10.90;;;3.95;;
29812;SDS011;16707;48.106;11.548;2023-10-09T14:16:20;15.15;;;3.72;;
29812;SDS011;16707;48.106;11.548;2023-10-09T14:18:52;19.33;;;4.68;;
29812;SDS011;16707;48.106;11.548;2023-10-09T14:21:24;10.35;;;3.90;;
29812;SDS011;16707;48.106;11.548;2023-10-09T14:23:53;12.68;;;4.25;;
29812;SDS011;16707;48.106;11.548;2023-10-09T14:26:23;11.45;;;3.78;;
29812;SDS011;16707;48.106;11.548;2023-10-09T14:28:51;15.40;;;3.95;;
29812;SDS011;16707;48.106;11.548;2023-10-09T14:31:21;11.45;;;4.35;;
29812;SDS011;16707;48.106;11.548;2023-10-09T14:33:56;19.15;;;4.47;;
29812;SDS011;16707;48.106;11.548;2023-10-09T14:36:24;14.15;;;4.15;;
29812;SDS011;16707;48.106;11.548;2023-10-09T14:38:58;13.57;;;4.00;;
29812;SDS011;16707;48.106;11.548;2023-10-09T14:41:26;12.82;;;4.35;;
29812;SDS011;16707;48.106;11.548;2023-10-09T14:43:58;13.55;;;4.20;;
29812;SDS011;16707;48.106;11.548;2023-10-09T14:46:25;13.98;;;3.80;;
29812;SDS011;16707;48.106;11.548;2023-10-09T14:48:53;12.65;;;4.57;;
29812;SDS011;16707;48.106;11.548;2023-10-09T14:51:21;13.40;;;4.03;;
29812;SDS011;16707;48.106;11.548;2023-10-09T14:53:54;10.35;;;3.83;;
29812;SDS011;16707;48.106;11.548;2023-10-09T14:56:26;18.05;;;4.40;;
29812;SDS011;16707;48.106;11.548;2023-10-09T14:58:58;13.35;;;4.25;;
29812;SDS011;16707;48.106;11.548;2023-10-09T15:01:26;12.70;;;4.43;;
29812;SDS011;16707;48.106;11.548;2023-10-09T15:03:56;14.25;;;4.15;;
29812;SDS011;16707;48.106;11.548;2023-10-09T15:06:24;16.83;;;4.20;;
29812;SDS011;16707;48.106;11.548;2023-10-09T15:08:56;12.88;;;3.92;;
29812;SDS011;16707;48.106;11.548;2023-10-09T15:11:25;11.75;;;3.88;;
29812;SDS011;16707;48.106;11.548;2023-10-09T15:13:53;11.75;;;4.20;;
29812;SDS011;16707;48.106;11.548;2023-10-09T15:16:21;10.32;;;3.72;;
29812;SDS011;16707;48.106;11.548;2023-10-09T15:18:51;13.27;;;4.70;;
29812;SDS011;16707;48.106;11.548;2023-10-09T15:21:22;10.68;;;3.95;;
29812;SDS011;16707;48.106;11.548;2023-10-09T15:23:51;10.35;;;3.92;;